sensor_id;sensor_type;location;lat;lon;timestamp;P1;durP1;ratioP1;P2;durP2;ratioP2
4122;SDS011;2075;51.062;6.920;2022-07-24T00:02:44;14.17;;;9.73;;
4122;SDS011;2075;51.062;6.920;2022-07-24T00:05:29;10.20;;;8.90;;
4122;SDS011;2075;51.062;6.920;2022-07-24T00:08:17;11.43;;;9.30;;
4122;SDS011;2075;51.062;6.920;2022-07-24T00:11:02;13.40;;;8.33;;
4122;SDS011;2075;51.062;6.920;2022-07-24T00:13:48;10.20;;;8.27;;
4122;SDS011;2075;51.062;6.920;2022-07-24T00:16:33;10.93;;;9.47;;
4122;SDS011;2075;51.062;6.920;2022-07-24T00:19:19;9.87;;;8.40;;
4122;SDS011;2075;51.062;6.920;2022-07-24T00:22:04;11.83;;;8.70;;
4122;SDS011;2075;51.062;6.920;2022-07-24T00:24:51;11.70;;;8.80;;
4122;SDS011;2075;51.062;6.920;2022-07-24T00:27:36;9.87;;;8.87;;
4122;SDS011;2075;51.062;6.920;2022-07-24T00:30:22;17.20;;;9.03;;
4122;SDS011;2075;51.062;6.920;2022-07-24T00:33:07;12.50;;;9.40;;
4122;SDS011;2075;51.062;6.920;2022-07-24T00:35:52;11.97;;;9.57;;
4122;SDS011;2075;51.062;6.920;2022-07-24T00:38:38;11.30;;;9.57;;
4122;SDS011;2075;51.062;6.920;2022-07-24T00:41:25;13.10;;;10.20;;
4122;SDS011;2075;51.062;6.920;2022-07-24T00:44:11;10.13;;;9.07;;
4122;SDS011;2075;51.062;6.920;2022-07-24T00:46:58;12.07;;;9.47;;
4122;SDS011;2075;51.062;6.920;2022-07-24T00:49:43;12.20;;;9.90;;
4122;SDS011;2075;51.062;6.920;2022-07-24T00:52:29;14.93;;;9.87;;
4122;SDS011;2075;51.062;6.920;2022-07-24T00:55:15;13.27;;;9.80;;
4122;SDS011;2075;51.062;6.920;2022-07-24T00:58:02;12.13;;;10.13;;
4122;SDS011;2075;51.062;6.920;2022-07-24T01:00:47;14.83;;;10.10;;
4122;SDS011;2075;51.062;6.920;2022-07-24T01:03:32;13.30;;;10.23;;
4122;SDS011;2075;51.062;6.920;2022-07-24T01:06:18;13.50;;;10.20;;
4122;SDS011;2075;51.062;6.920;2022-07-24T01:09:04;12.17;;;10.80;;
4122;SDS011;2075;51.062;6.920;2022-07-24T01:11:49;17.10;;;10.73;;
4122;SDS011;2075;51.062;6.920;2022-07-24T01:14:38;11.53;;;10.10;;
4122;SDS011;2075;51.062;6.920;2022-07-24T01:17:23;16.07;;;10.27;;
4122;SDS011;2075;51.062;6.920;2022-07-24T01:20:14;15.40;;;10.10;;
4122;SDS011;2075;51.062;6.920;2022-07-24T01:23:01;11.70;;;10.00;;
4122;SDS011;2075;51.062;6.920;2022-07-24T01:25:46;12.27;;;10.90;;
4122;SDS011;2075;51.062;6.920;2022-07-24T01:28:32;12.10;;;10.00;;
4122;SDS011;2075;51.062;6.920;2022-07-24T01:31:17;12.40;;;10.43;;
4122;SDS011;2075;51.062;6.920;2022-07-24T01:34:03;11.83;;;10.23;;
4122;SDS011;2075;51.062;6.920;2022-07-24T01:36:49;13.40;;;10.30;;
4122;SDS011;2075;51.062;6.920;2022-07-24T01:39:36;10.60;;;9.50;;
4122;SDS011;2075;51.062;6.920;2022-07-24T01:42:21;11.93;;;10.50;;
4122;SDS011;2075;51.062;6.920;2022-07-24T01:45:09;10.37;;;9.30;;
4122;SDS011;2075;51.062;6.920;2022-07-24T01:47:55;11.53;;;9.50;;
4122;SDS011;2075;51.062;6.920;2022-07-24T01:50:40;15.97;;;10.17;;
4122;SDS011;2075;51.062;6.920;2022-07-24T01:53:25;12.47;;;9.73;;
4122;SDS011;2075;51.062;6.920;2022-07-24T01:56:13;11.83;;;9.87;;
4122;SDS011;2075;51.062;6.920;2022-07-24T01:58:58;12.20;;;10.07;;
4122;SDS011;2075;51.062;6.920;2022-07-24T02:01:43;11.20;;;10.03;;
4122;SDS011;2075;51.062;6.920;2022-07-24T02:04:29;11.83;;;9.90;;
4122;SDS011;2075;51.062;6.920;2022-07-24T02:07:14;12.07;;;9.83;;
4122;SDS011;2075;51.062;6.920;2022-07-24T02:10:00;14.07;;;10.63;;
4122;SDS011;2075;51.062;6.920;2022-07-24T02:12:46;11.77;;;9.47;;
4122;SDS011;2075;51.062;6.920;2022-07-24T02:15:32;13.97;;;10.90;;
4122;SDS011;2075;51.062;6.920;2022-07-24T02:18:17;13.20;;;10.80;;
4122;SDS011;2075;51.062;6.920;2022-07-24T02:21:03;13.43;;;10.40;;
4122;SDS011;2075;51.062;6.920;2022-07-24T02:23:49;12.57;;;10.40;;
4122;SDS011;2075;51.062;6.920;2022-07-24T02:26:34;12.87;;;10.23;;
4122;SDS011;2075;51.062;6.920;2022-07-24T02:29:21;13.17;;;10.27;;
4122;SDS011;2075;51.062;6.920;2022-07-24T02:32:06;14.07;;;11.03;;
4122;SDS011;2075;51.062;6.920;2022-07-24T02:34:52;13.00;;;9.80;;
4122;SDS011;2075;51.062;6.920;2022-07-24T02:37:37;12.63;;;10.30;;
4122;SDS011;2075;51.062;6.920;2022-07-24T02:40:24;12.60;;;9.90;;
4122;SDS011;2075;51.062;6.920;2022-07-24T02:43:09;11.10;;;10.00;;
4122;SDS011;2075;51.062;6.920;2022-07-24T02:45:56;14.03;;;9.83;;
4122;SDS011;2075;51.062;6.920;2022-07-24T02:48:41;13.80;;;10.50;;
4122;SDS011;2075;51.062;6.920;2022-07-24T02:51:27;12.60;;;10.47;;
4122;SDS011;2075;51.062;6.920;2022-07-24T02:54:12;12.80;;;10.43;;
4122;SDS011;2075;51.062;6.920;2022-07-24T02:56:58;12.00;;;10.40;;
4122;SDS011;2075;51.062;6.920;2022-07-24T02:59:43;11.27;;;10.13;;
4122;SDS011;2075;51.062;6.920;2022-07-24T03:02:35;12.03;;;10.00;;
4122;SDS011;2075;51.062;6.920;2022-07-24T03:05:20;13.40;;;10.07;;
4122;SDS011;2075;51.062;6.920;2022-07-24T03:08:06;14.40;;;10.10;;
4122;SDS011;2075;51.062;6.920;2022-07-24T03:10:51;12.97;;;10.20;;
4122;SDS011;2075;51.062;6.920;2022-07-24T03:13:37;14.20;;;9.97;;
4122;SDS011;2075;51.062;6.920;2022-07-24T03:16:22;14.13;;;11.90;;
4122;SDS011;2075;51.062;6.920;2022-07-24T03:19:09;13.30;;;9.50;;
4122;SDS011;2075;51.062;6.920;2022-07-24T03:21:54;12.00;;;10.07;;
4122;SDS011;2075;51.062;6.920;2022-07-24T03:24:39;15.00;;;10.63;;
4122;SDS011;2075;51.062;6.920;2022-07-24T03:27:25;14.40;;;10.20;;
4122;SDS011;2075;51.062;6.920;2022-07-24T03:30:11;13.33;;;10.70;;
4122;SDS011;2075;51.062;6.920;2022-07-24T03:32:57;15.67;;;9.93;;
4122;SDS011;2075;51.062;6.920;2022-07-24T03:35:44;12.00;;;10.20;;
4122;SDS011;2075;51.062;6.920;2022-07-24T03:38:29;12.40;;;11.00;;
4122;SDS011;2075;51.062;6.920;2022-07-24T03:41:15;14.50;;;10.33;;
4122;SDS011;2075;51.062;6.920;2022-07-24T03:44:00;12.93;;;10.60;;
4122;SDS011;2075;51.062;6.920;2022-07-24T03:46:45;12.40;;;9.60;;
4122;SDS011;2075;51.062;6.920;2022-07-24T03:49:31;15.80;;;10.97;;
4122;SDS011;2075;51.062;6.920;2022-07-24T03:52:18;15.77;;;11.00;;
4122;SDS011;2075;51.062;6.920;2022-07-24T03:55:04;17.67;;;10.87;;
4122;SDS011;2075;51.062;6.920;2022-07-24T03:57:51;15.20;;;11.63;;
4122;SDS011;2075;51.062;6.920;2022-07-24T04:00:36;14.20;;;10.77;;
4122;SDS011;2075;51.062;6.920;2022-07-24T04:03:22;17.77;;;11.47;;
4122;SDS011;2075;51.062;6.920;2022-07-24T04:06:07;11.57;;;10.10;;
4122;SDS011;2075;51.062;6.920;2022-07-24T04:08:54;16.80;;;10.07;;
4122;SDS011;2075;51.062;6.920;2022-07-24T04:11:39;12.40;;;10.30;;
4122;SDS011;2075;51.062;6.920;2022-07-24T04:14:25;14.50;;;9.90;;
4122;SDS011;2075;51.062;6.920;2022-07-24T04:17:10;12.80;;;10.30;;
4122;SDS011;2075;51.062;6.920;2022-07-24T04:19:56;15.37;;;10.80;;
4122;SDS011;2075;51.062;6.920;2022-07-24T04:22:41;12.43;;;10.60;;
4122;SDS011;2075;51.062;6.920;2022-07-24T04:25:28;16.93;;;9.57;;
4122;SDS011;2075;51.062;6.920;2022-07-24T04:28:14;16.60;;;10.40;;
4122;SDS011;2075;51.062;6.920;2022-07-24T04:31:00;11.07;;;8.97;;
4122;SDS011;2075;51.062;6.920;2022-07-24T04:33:46;13.30;;;10.20;;
4122;SDS011;2075;51.062;6.920;2022-07-24T04:36:31;12.77;;;10.57;;
4122;SDS011;2075;51.062;6.920;2022-07-24T04:39:17;13.63;;;10.87;;
4122;SDS011;2075;51.062;6.920;2022-07-24T04:42:04;18.30;;;10.60;;
4122;SDS011;2075;51.062;6.920;2022-07-24T04:44:49;12.13;;;9.30;;
4122;SDS011;2075;51.062;6.920;2022-07-24T04:47:35;13.67;;;9.23;;
4122;SDS011;2075;51.062;6.920;2022-07-24T04:50:21;12.07;;;9.17;;
4122;SDS011;2075;51.062;6.920;2022-07-24T04:53:12;10.60;;;9.30;;
4122;SDS011;2075;51.062;6.920;2022-07-24T04:55:57;16.50;;;9.60;;
4122;SDS011;2075;51.062;6.920;2022-07-24T04:58:44;10.67;;;8.70;;
4122;SDS011;2075;51.062;6.920;2022-07-24T05:01:29;12.33;;;9.23;;
4122;SDS011;2075;51.062;6.920;2022-07-24T05:04:15;12.10;;;9.20;;
4122;SDS011;2075;51.062;6.920;2022-07-24T05:07:01;18.90;;;11.57;;
4122;SDS011;2075;51.062;6.920;2022-07-24T05:09:46;14.40;;;9.20;;
4122;SDS011;2075;51.062;6.920;2022-07-24T05:12:32;13.67;;;9.80;;
4122;SDS011;2075;51.062;6.920;2022-07-24T05:15:19;11.77;;;9.27;;
4122;SDS011;2075;51.062;6.920;2022-07-24T05:18:04;14.00;;;9.20;;
4122;SDS011;2075;51.062;6.920;2022-07-24T05:20:50;16.17;;;8.77;;
4122;SDS011;2075;51.062;6.920;2022-07-24T05:23:35;19.23;;;8.80;;
4122;SDS011;2075;51.062;6.920;2022-07-24T05:26:21;23.80;;;17.83;;
4122;SDS011;2075;51.062;6.920;2022-07-24T05:29:07;14.90;;;10.57;;
4122;SDS011;2075;51.062;6.920;2022-07-24T05:31:54;16.50;;;14.83;;
4122;SDS011;2075;51.062;6.920;2022-07-24T05:34:39;15.40;;;8.97;;
4122;SDS011;2075;51.062;6.920;2022-07-24T05:37:25;12.93;;;7.23;;
4122;SDS011;2075;51.062;6.920;2022-07-24T05:40:11;6.50;;;5.83;;
4122;SDS011;2075;51.062;6.920;2022-07-24T05:42:57;6.60;;;6.00;;
4122;SDS011;2075;51.062;6.920;2022-07-24T05:45:42;8.77;;;5.77;;
4122;SDS011;2075;51.062;6.920;2022-07-24T05:48:29;6.50;;;5.20;;
4122;SDS011;2075;51.062;6.920;2022-07-24T05:51:15;5.40;;;5.00;;
4122;SDS011;2075;51.062;6.920;2022-07-24T05:54:01;15.93;;;14.63;;
4122;SDS011;2075;51.062;6.920;2022-07-24T05:56:46;6.23;;;5.73;;
4122;SDS011;2075;51.062;6.920;2022-07-24T05:59:32;5.60;;;5.10;;
4122;SDS011;2075;51.062;6.920;2022-07-24T06:02:17;5.40;;;4.90;;
4122;SDS011;2075;51.062;6.920;2022-07-24T06:05:04;5.17;;;4.87;;
4122;SDS011;2075;51.062;6.920;2022-07-24T06:07:50;5.20;;;4.80;;
4122;SDS011;2075;51.062;6.920;2022-07-24T06:10:35;5.20;;;4.80;;
4122;SDS011;2075;51.062;6.920;2022-07-24T06:13:21;5.67;;;5.17;;
4122;SDS011;2075;51.062;6.920;2022-07-24T06:16:07;5.00;;;4.60;;
4122;SDS011;2075;51.062;6.920;2022-07-24T06:18:52;4.77;;;4.37;;
4122;SDS011;2075;51.062;6.920;2022-07-24T06:21:39;7.80;;;6.80;;
4122;SDS011;2075;51.062;6.920;2022-07-24T06:24:25;5.63;;;5.33;;
4122;SDS011;2075;51.062;6.920;2022-07-24T06:27:10;28.33;;;26.07;;
4122;SDS011;2075;51.062;6.920;2022-07-24T06:29:56;5.67;;;5.27;;
4122;SDS011;2075;51.062;6.920;2022-07-24T06:32:41;4.95;;;4.38;;
4122;SDS011;2075;51.062;6.920;2022-07-24T06:35:28;6.60;;;3.78;;
4122;SDS011;2075;51.062;6.920;2022-07-24T06:38:17;8.07;;;3.55;;
4122;SDS011;2075;51.062;6.920;2022-07-24T06:41:03;3.63;;;3.45;;
4122;SDS011;2075;51.062;6.920;2022-07-24T06:43:48;3.80;;;3.60;;
4122;SDS011;2075;51.062;6.920;2022-07-24T06:46:33;4.90;;;4.60;;
4122;SDS011;2075;51.062;6.920;2022-07-24T06:49:19;12.98;;;11.77;;
4122;SDS011;2075;51.062;6.920;2022-07-24T06:52:05;5.28;;;4.97;;
4122;SDS011;2075;51.062;6.920;2022-07-24T06:54:52;5.07;;;4.72;;
4122;SDS011;2075;51.062;6.920;2022-07-24T06:57:37;4.47;;;4.07;;
4122;SDS011;2075;51.062;6.920;2022-07-24T07:00:22;3.83;;;3.72;;
4122;SDS011;2075;51.062;6.920;2022-07-24T07:03:08;4.18;;;4.07;;
4122;SDS011;2075;51.062;6.920;2022-07-24T07:05:53;4.20;;;4.00;;
4122;SDS011;2075;51.062;6.920;2022-07-24T07:08:38;3.58;;;3.47;;
4122;SDS011;2075;51.062;6.920;2022-07-24T07:11:25;4.47;;;4.28;;
4122;SDS011;2075;51.062;6.920;2022-07-24T07:14:11;4.35;;;3.88;;
4122;SDS011;2075;51.062;6.920;2022-07-24T07:16:56;3.80;;;3.50;;
4122;SDS011;2075;51.062;6.920;2022-07-24T07:19:42;9.80;;;9.00;;
4122;SDS011;2075;51.062;6.920;2022-07-24T07:22:28;3.72;;;3.53;;
4122;SDS011;2075;51.062;6.920;2022-07-24T07:25:13;4.05;;;3.75;;
4122;SDS011;2075;51.062;6.920;2022-07-24T07:28:00;3.83;;;3.63;;
4122;SDS011;2075;51.062;6.920;2022-07-24T07:30:45;4.85;;;3.40;;
4122;SDS011;2075;51.062;6.920;2022-07-24T07:33:31;13.85;;;12.65;;
4122;SDS011;2075;51.062;6.920;2022-07-24T07:36:16;3.97;;;3.67;;
4122;SDS011;2075;51.062;6.920;2022-07-24T07:39:02;3.67;;;3.53;;
4122;SDS011;2075;51.062;6.920;2022-07-24T07:41:48;3.63;;;3.53;;
4122;SDS011;2075;51.062;6.920;2022-07-24T07:44:35;4.50;;;4.30;;
4122;SDS011;2075;51.062;6.920;2022-07-24T07:47:20;4.30;;;4.10;;
4122;SDS011;2075;51.062;6.920;2022-07-24T07:50:06;7.35;;;6.95;;
4122;SDS011;2075;51.062;6.920;2022-07-24T07:52:52;4.93;;;4.72;;
4122;SDS011;2075;51.062;6.920;2022-07-24T07:55:37;3.35;;;3.25;;
4122;SDS011;2075;51.062;6.920;2022-07-24T07:58:23;3.65;;;3.45;;
4122;SDS011;2075;51.062;6.920;2022-07-24T08:01:11;3.88;;;3.58;;
4122;SDS011;2075;51.062;6.920;2022-07-24T08:03:57;3.70;;;3.60;;
4122;SDS011;2075;51.062;6.920;2022-07-24T08:06:42;3.55;;;3.05;;
4122;SDS011;2075;51.062;6.920;2022-07-24T08:09:28;4.43;;;4.22;;
4122;SDS011;2075;51.062;6.920;2022-07-24T08:12:13;4.40;;;4.10;;
4122;SDS011;2075;51.062;6.920;2022-07-24T08:14:59;3.63;;;3.08;;
4122;SDS011;2075;51.062;6.920;2022-07-24T08:17:47;3.38;;;3.28;;
4122;SDS011;2075;51.062;6.920;2022-07-24T08:20:36;3.65;;;3.55;;
4122;SDS011;2075;51.062;6.920;2022-07-24T08:23:21;3.22;;;3.13;;
4122;SDS011;2075;51.062;6.920;2022-07-24T08:26:06;4.63;;;3.92;;
4122;SDS011;2075;51.062;6.920;2022-07-24T08:28:52;4.70;;;4.30;;
4122;SDS011;2075;51.062;6.920;2022-07-24T08:31:38;4.13;;;3.92;;
4122;SDS011;2075;51.062;6.920;2022-07-24T08:34:25;4.63;;;3.45;;
4122;SDS011;2075;51.062;6.920;2022-07-24T08:37:10;4.20;;;3.95;;
4122;SDS011;2075;51.062;6.920;2022-07-24T08:39:56;4.88;;;4.75;;
4122;SDS011;2075;51.062;6.920;2022-07-24T08:42:41;7.13;;;6.72;;
4122;SDS011;2075;51.062;6.920;2022-07-24T08:45:27;6.75;;;6.35;;
4122;SDS011;2075;51.062;6.920;2022-07-24T08:48:12;4.85;;;4.55;;
4122;SDS011;2075;51.062;6.920;2022-07-24T08:50:59;3.88;;;3.67;;
4122;SDS011;2075;51.062;6.920;2022-07-24T08:53:44;3.78;;;3.47;;
4122;SDS011;2075;51.062;6.920;2022-07-24T08:56:30;3.53;;;3.42;;
4122;SDS011;2075;51.062;6.920;2022-07-24T08:59:17;3.60;;;3.40;;
4122;SDS011;2075;51.062;6.920;2022-07-24T09:02:04;3.70;;;3.60;;
4122;SDS011;2075;51.062;6.920;2022-07-24T09:04:49;3.72;;;3.53;;
4122;SDS011;2075;51.062;6.920;2022-07-24T09:07:44;3.70;;;3.60;;
4122;SDS011;2075;51.062;6.920;2022-07-24T09:10:29;3.85;;;3.60;;
4122;SDS011;2075;51.062;6.920;2022-07-24T09:13:17;4.28;;;3.97;;
4122;SDS011;2075;51.062;6.920;2022-07-24T09:16:02;4.38;;;4.18;;
4122;SDS011;2075;51.062;6.920;2022-07-24T09:18:49;4.65;;;4.32;;
4122;SDS011;2075;51.062;6.920;2022-07-24T09:21:36;25.35;;;22.10;;
4122;SDS011;2075;51.062;6.920;2022-07-24T09:24:24;5.43;;;5.03;;
4122;SDS011;2075;51.062;6.920;2022-07-24T09:27:10;7.23;;;5.50;;
4122;SDS011;2075;51.062;6.920;2022-07-24T09:29:59;6.33;;;5.83;;
4122;SDS011;2075;51.062;6.920;2022-07-24T09:32:50;5.73;;;5.37;;
4122;SDS011;2075;51.062;6.920;2022-07-24T09:35:38;6.60;;;6.10;;
4122;SDS011;2075;51.062;6.920;2022-07-24T09:38:25;5.70;;;5.30;;
4122;SDS011;2075;51.062;6.920;2022-07-24T09:41:18;8.33;;;6.10;;
4122;SDS011;2075;51.062;6.920;2022-07-24T09:44:05;9.80;;;6.77;;
4122;SDS011;2075;51.062;6.920;2022-07-24T09:46:54;7.30;;;6.57;;
4122;SDS011;2075;51.062;6.920;2022-07-24T09:49:40;7.00;;;6.37;;
4122;SDS011;2075;51.062;6.920;2022-07-24T09:52:31;10.23;;;6.30;;
4122;SDS011;2075;51.062;6.920;2022-07-24T09:55:22;7.33;;;6.70;;
4122;SDS011;2075;51.062;6.920;2022-07-24T09:58:13;6.70;;;5.70;;
4122;SDS011;2075;51.062;6.920;2022-07-24T10:01:02;8.07;;;7.33;;
4122;SDS011;2075;51.062;6.920;2022-07-24T10:03:49;8.63;;;7.07;;
4122;SDS011;2075;51.062;6.920;2022-07-24T10:06:35;9.20;;;7.30;;
4122;SDS011;2075;51.062;6.920;2022-07-24T10:09:21;6.07;;;5.67;;
4122;SDS011;2075;51.062;6.920;2022-07-24T10:12:12;6.43;;;5.93;;
4122;SDS011;2075;51.062;6.920;2022-07-24T10:15:01;7.57;;;6.73;;
4122;SDS011;2075;51.062;6.920;2022-07-24T10:17:57;10.03;;;9.00;;
4122;SDS011;2075;51.062;6.920;2022-07-24T10:21:01;9.40;;;7.40;;
4122;SDS011;2075;51.062;6.920;2022-07-24T10:23:59;8.87;;;6.93;;
4122;SDS011;2075;51.062;6.920;2022-07-24T10:27:09;8.70;;;5.20;;
4122;SDS011;2075;51.062;6.920;2022-07-24T10:30:08;6.73;;;6.13;;
4122;SDS011;2075;51.062;6.920;2022-07-24T10:32:56;8.73;;;7.40;;
4122;SDS011;2075;51.062;6.920;2022-07-24T10:35:41;7.53;;;6.80;;
4122;SDS011;2075;51.062;6.920;2022-07-24T10:38:29;6.00;;;5.50;;
4122;SDS011;2075;51.062;6.920;2022-07-24T10:41:21;6.10;;;5.63;;
4122;SDS011;2075;51.062;6.920;2022-07-24T10:44:16;9.10;;;5.83;;
4122;SDS011;2075;51.062;6.920;2022-07-24T10:47:06;6.30;;;5.67;;
4122;SDS011;2075;51.062;6.920;2022-07-24T10:49:53;5.80;;;5.30;;
4122;SDS011;2075;51.062;6.920;2022-07-24T10:52:41;5.13;;;4.73;;
4122;SDS011;2075;51.062;6.920;2022-07-24T10:55:30;9.13;;;5.90;;
4122;SDS011;2075;51.062;6.920;2022-07-24T10:58:17;5.70;;;5.20;;
4122;SDS011;2075;51.062;6.920;2022-07-24T11:01:26;5.73;;;5.33;;
4122;SDS011;2075;51.062;6.920;2022-07-24T11:04:26;5.83;;;5.30;;
4122;SDS011;2075;51.062;6.920;2022-07-24T11:07:13;5.87;;;5.37;;
4122;SDS011;2075;51.062;6.920;2022-07-24T11:09:59;5.60;;;5.20;;
4122;SDS011;2075;51.062;6.920;2022-07-24T11:12:51;5.87;;;5.43;;
4122;SDS011;2075;51.062;6.920;2022-07-24T11:22:15;6.57;;;5.53;;
4122;SDS011;2075;51.062;6.920;2022-07-24T11:25:12;5.43;;;5.00;;
4122;SDS011;2075;51.062;6.920;2022-07-24T11:28:11;6.07;;;5.50;;
4122;SDS011;2075;51.062;6.920;2022-07-24T11:30:57;13.23;;;5.30;;
4122;SDS011;2075;51.062;6.920;2022-07-24T11:33:43;6.57;;;5.10;;
4122;SDS011;2075;51.062;6.920;2022-07-24T11:36:32;5.53;;;5.03;;
4122;SDS011;2075;51.062;6.920;2022-07-24T11:39:19;5.60;;;5.10;;
4122;SDS011;2075;51.062;6.920;2022-07-24T11:42:11;5.80;;;5.33;;
4122;SDS011;2075;51.062;6.920;2022-07-24T11:44:58;5.63;;;5.03;;
4122;SDS011;2075;51.062;6.920;2022-07-24T11:47:45;5.67;;;5.17;;
4122;SDS011;2075;51.062;6.920;2022-07-24T11:50:31;4.97;;;4.57;;
4122;SDS011;2075;51.062;6.920;2022-07-24T11:53:19;5.40;;;5.00;;
4122;SDS011;2075;51.062;6.920;2022-07-24T11:56:05;7.03;;;5.50;;
4122;SDS011;2075;51.062;6.920;2022-07-24T11:58:51;5.93;;;5.43;;
4122;SDS011;2075;51.062;6.920;2022-07-24T12:01:36;5.50;;;5.10;;
4122;SDS011;2075;51.062;6.920;2022-07-24T12:04:21;5.77;;;5.27;;
4122;SDS011;2075;51.062;6.920;2022-07-24T12:07:08;8.87;;;6.67;;
4122;SDS011;2075;51.062;6.920;2022-07-24T12:09:56;7.07;;;5.73;;
4122;SDS011;2075;51.062;6.920;2022-07-24T12:12:42;5.67;;;5.17;;
4122;SDS011;2075;51.062;6.920;2022-07-24T12:15:29;5.33;;;4.90;;
4122;SDS011;2075;51.062;6.920;2022-07-24T12:18:15;5.77;;;5.33;;
4122;SDS011;2075;51.062;6.920;2022-07-24T12:21:01;6.20;;;5.60;;
4122;SDS011;2075;51.062;6.920;2022-07-24T12:23:47;6.07;;;5.60;;
4122;SDS011;2075;51.062;6.920;2022-07-24T12:26:35;6.60;;;6.00;;
4122;SDS011;2075;51.062;6.920;2022-07-24T12:29:33;6.13;;;5.50;;
4122;SDS011;2075;51.062;6.920;2022-07-24T12:32:26;5.80;;;5.30;;
4122;SDS011;2075;51.062;6.920;2022-07-24T12:35:13;5.77;;;5.30;;
4122;SDS011;2075;51.062;6.920;2022-07-24T12:37:59;5.70;;;5.20;;
4122;SDS011;2075;51.062;6.920;2022-07-24T12:40:47;5.30;;;5.00;;
4122;SDS011;2075;51.062;6.920;2022-07-24T12:43:44;6.27;;;5.63;;
4122;SDS011;2075;51.062;6.920;2022-07-24T12:46:32;6.30;;;5.70;;
4122;SDS011;2075;51.062;6.920;2022-07-24T12:49:19;6.03;;;5.60;;
4122;SDS011;2075;51.062;6.920;2022-07-24T12:52:04;5.43;;;4.93;;
4122;SDS011;2075;51.062;6.920;2022-07-24T12:54:50;5.73;;;5.23;;
4122;SDS011;2075;51.062;6.920;2022-07-24T12:57:36;5.77;;;5.37;;
4122;SDS011;2075;51.062;6.920;2022-07-24T13:00:25;5.90;;;5.10;;
4122;SDS011;2075;51.062;6.920;2022-07-24T13:03:10;4.87;;;4.47;;
4122;SDS011;2075;51.062;6.920;2022-07-24T13:05:56;6.80;;;5.67;;
4122;SDS011;2075;51.062;6.920;2022-07-24T13:08:42;5.43;;;5.03;;
4122;SDS011;2075;51.062;6.920;2022-07-24T13:11:27;4.97;;;4.60;;
4122;SDS011;2075;51.062;6.920;2022-07-24T13:14:13;5.10;;;4.70;;
4122;SDS011;2075;51.062;6.920;2022-07-24T13:17:05;5.70;;;5.27;;
4122;SDS011;2075;51.062;6.920;2022-07-24T13:19:53;9.30;;;4.93;;
4122;SDS011;2075;51.062;6.920;2022-07-24T13:22:39;5.80;;;5.23;;
4122;SDS011;2075;51.062;6.920;2022-07-24T13:25:24;5.73;;;5.33;;
4122;SDS011;2075;51.062;6.920;2022-07-24T13:28:10;5.13;;;4.83;;
4122;SDS011;2075;51.062;6.920;2022-07-24T13:30:55;6.50;;;5.40;;
4122;SDS011;2075;51.062;6.920;2022-07-24T13:33:42;6.63;;;6.07;;
4122;SDS011;2075;51.062;6.920;2022-07-24T13:36:27;4.90;;;4.60;;
4122;SDS011;2075;51.062;6.920;2022-07-24T13:39:13;6.33;;;5.83;;
4122;SDS011;2075;51.062;6.920;2022-07-24T13:41:59;5.60;;;5.10;;
4122;SDS011;2075;51.062;6.920;2022-07-24T13:44:45;5.63;;;5.27;;
4122;SDS011;2075;51.062;6.920;2022-07-24T13:47:30;5.67;;;5.17;;
4122;SDS011;2075;51.062;6.920;2022-07-24T13:50:17;5.77;;;5.27;;
4122;SDS011;2075;51.062;6.920;2022-07-24T13:53:02;5.57;;;5.03;;
4122;SDS011;2075;51.062;6.920;2022-07-24T13:55:49;5.43;;;4.93;;
4122;SDS011;2075;51.062;6.920;2022-07-24T13:58:35;5.30;;;4.90;;
4122;SDS011;2075;51.062;6.920;2022-07-24T14:01:21;5.80;;;5.40;;
4122;SDS011;2075;51.062;6.920;2022-07-24T14:04:06;5.90;;;5.40;;
4122;SDS011;2075;51.062;6.920;2022-07-24T14:06:54;6.90;;;4.93;;
4122;SDS011;2075;51.062;6.920;2022-07-24T14:09:40;5.53;;;4.83;;
4122;SDS011;2075;51.062;6.920;2022-07-24T14:12:26;5.47;;;5.07;;
4122;SDS011;2075;51.062;6.920;2022-07-24T14:15:16;5.27;;;4.97;;
4122;SDS011;2075;51.062;6.920;2022-07-24T14:18:01;5.50;;;4.80;;
4122;SDS011;2075;51.062;6.920;2022-07-24T14:20:47;5.97;;;5.57;;
4122;SDS011;2075;51.062;6.920;2022-07-24T14:23:34;5.37;;;4.93;;
4122;SDS011;2075;51.062;6.920;2022-07-24T14:26:19;5.23;;;4.83;;
4122;SDS011;2075;51.062;6.920;2022-07-24T14:29:05;5.80;;;4.67;;
4122;SDS011;2075;51.062;6.920;2022-07-24T14:31:50;5.23;;;4.83;;
4122;SDS011;2075;51.062;6.920;2022-07-24T14:34:36;6.20;;;5.50;;
4122;SDS011;2075;51.062;6.920;2022-07-24T14:37:21;5.67;;;5.17;;
4122;SDS011;2075;51.062;6.920;2022-07-24T14:40:09;5.60;;;5.20;;
4122;SDS011;2075;51.062;6.920;2022-07-24T14:42:54;4.87;;;4.50;;
4122;SDS011;2075;51.062;6.920;2022-07-24T14:45:40;5.50;;;5.10;;
4122;SDS011;2075;51.062;6.920;2022-07-24T14:48:25;5.47;;;4.63;;
4122;SDS011;2075;51.062;6.920;2022-07-24T14:51:11;5.10;;;4.80;;
4122;SDS011;2075;51.062;6.920;2022-07-24T14:53:56;4.90;;;4.60;;
4122;SDS011;2075;51.062;6.920;2022-07-24T14:56:43;4.93;;;4.50;;
4122;SDS011;2075;51.062;6.920;2022-07-24T14:59:28;4.10;;;3.83;;
4122;SDS011;2075;51.062;6.920;2022-07-24T15:02:14;4.50;;;4.20;;
4122;SDS011;2075;51.062;6.920;2022-07-24T15:04:59;5.20;;;4.90;;
4122;SDS011;2075;51.062;6.920;2022-07-24T15:07:44;5.27;;;4.97;;
4122;SDS011;2075;51.062;6.920;2022-07-24T15:10:30;5.33;;;4.83;;
4122;SDS011;2075;51.062;6.920;2022-07-24T15:13:17;4.90;;;4.50;;
4122;SDS011;2075;51.062;6.920;2022-07-24T15:16:02;4.80;;;4.40;;
4122;SDS011;2075;51.062;6.920;2022-07-24T15:18:48;5.17;;;4.80;;
4122;SDS011;2075;51.062;6.920;2022-07-24T15:21:34;6.43;;;5.40;;
4122;SDS011;2075;51.062;6.920;2022-07-24T15:24:20;4.73;;;4.33;;
4122;SDS011;2075;51.062;6.920;2022-07-24T15:27:05;12.33;;;4.50;;
4122;SDS011;2075;51.062;6.920;2022-07-24T15:29:52;5.13;;;4.70;;
4122;SDS011;2075;51.062;6.920;2022-07-24T15:32:38;5.43;;;4.80;;
4122;SDS011;2075;51.062;6.920;2022-07-24T15:35:23;4.20;;;4.00;;
4122;SDS011;2075;51.062;6.920;2022-07-24T15:38:09;4.77;;;4.37;;
4122;SDS011;2075;51.062;6.920;2022-07-24T15:40:54;4.90;;;4.40;;
4122;SDS011;2075;51.062;6.920;2022-07-24T15:43:40;4.63;;;4.23;;
4122;SDS011;2075;51.062;6.920;2022-07-24T15:46:27;5.20;;;4.50;;
4122;SDS011;2075;51.062;6.920;2022-07-24T15:49:12;5.33;;;4.90;;
4122;SDS011;2075;51.062;6.920;2022-07-24T15:51:58;4.93;;;4.63;;
4122;SDS011;2075;51.062;6.920;2022-07-24T15:54:44;5.10;;;4.80;;
4122;SDS011;2075;51.062;6.920;2022-07-24T15:57:29;5.00;;;4.70;;
4122;SDS011;2075;51.062;6.920;2022-07-24T16:00:15;5.10;;;4.70;;
4122;SDS011;2075;51.062;6.920;2022-07-24T16:03:02;6.17;;;5.57;;
4122;SDS011;2075;51.062;6.920;2022-07-24T16:05:48;6.13;;;5.70;;
4122;SDS011;2075;51.062;6.920;2022-07-24T16:08:33;5.00;;;4.70;;
4122;SDS011;2075;51.062;6.920;2022-07-24T16:11:18;5.43;;;4.70;;
4122;SDS011;2075;51.062;6.920;2022-07-24T16:14:04;6.00;;;5.40;;
4122;SDS011;2075;51.062;6.920;2022-07-24T16:16:49;5.33;;;4.93;;
4122;SDS011;2075;51.062;6.920;2022-07-24T16:19:36;5.13;;;4.70;;
4122;SDS011;2075;51.062;6.920;2022-07-24T16:22:23;6.30;;;4.63;;
4122;SDS011;2075;51.062;6.920;2022-07-24T16:25:09;5.97;;;5.37;;
4122;SDS011;2075;51.062;6.920;2022-07-24T16:27:55;5.17;;;4.77;;
4122;SDS011;2075;51.062;6.920;2022-07-24T16:30:40;5.40;;;4.90;;
4122;SDS011;2075;51.062;6.920;2022-07-24T16:33:26;4.43;;;4.23;;
4122;SDS011;2075;51.062;6.920;2022-07-24T16:36:12;5.33;;;4.93;;
4122;SDS011;2075;51.062;6.920;2022-07-24T16:38:58;5.30;;;4.90;;
4122;SDS011;2075;51.062;6.920;2022-07-24T16:41:43;5.40;;;5.00;;
4122;SDS011;2075;51.062;6.920;2022-07-24T16:44:30;4.90;;;4.60;;
4122;SDS011;2075;51.062;6.920;2022-07-24T16:47:16;5.77;;;5.27;;
4122;SDS011;2075;51.062;6.920;2022-07-24T16:50:01;4.90;;;4.60;;
4122;SDS011;2075;51.062;6.920;2022-07-24T16:52:48;5.70;;;5.20;;
4122;SDS011;2075;51.062;6.920;2022-07-24T16:55:33;5.83;;;5.40;;
4122;SDS011;2075;51.062;6.920;2022-07-24T16:58:19;4.87;;;4.57;;
4122;SDS011;2075;51.062;6.920;2022-07-24T17:01:05;5.93;;;4.50;;
4122;SDS011;2075;51.062;6.920;2022-07-24T17:03:51;7.10;;;5.37;;
4122;SDS011;2075;51.062;6.920;2022-07-24T17:06:37;5.80;;;5.40;;
4122;SDS011;2075;51.062;6.920;2022-07-24T17:09:23;5.70;;;5.30;;
4122;SDS011;2075;51.062;6.920;2022-07-24T17:12:09;5.63;;;5.00;;
4122;SDS011;2075;51.062;6.920;2022-07-24T17:14:55;5.07;;;4.77;;